createdAt,value
2023-03-21T00:00:58.777Z,44.36
2023-03-21T00:03:29.244Z,44.38
2023-03-21T00:06:01.154Z,44.71
2023-03-21T00:08:31.704Z,44.40
2023-03-21T00:11:04.249Z,44.52
2023-03-21T00:16:39.924Z,44.34
2023-03-21T00:19:11.659Z,44.62
2023-03-21T00:21:59.515Z,44.37
2023-03-21T00:24:33.240Z,44.64
2023-03-21T00:27:29.929Z,44.57
2023-03-21T00:29:54.246Z,44.50
2023-03-21T00:32:25.085Z,44.46
2023-03-21T00:35:11.805Z,44.72
2023-03-21T00:37:47.232Z,44.63
2023-03-21T00:40:26.617Z,44.43
2023-03-21T00:43:01.410Z,44.41
2023-03-21T00:45:32.253Z,44.84
2023-03-21T00:48:02.829Z,44.43
2023-03-21T00:50:34.800Z,44.67
2023-03-21T00:53:07.447Z,44.67
2023-03-21T00:55:39.041Z,44.36
2023-03-21T00:58:09.678Z,44.49
2023-03-21T01:00:41.725Z,44.84
2023-03-21T01:03:24.572Z,44.52
2023-03-21T01:06:07.722Z,44.73
2023-03-21T01:08:52.342Z,44.50
2023-03-21T01:11:26.490Z,44.38
2023-03-21T01:14:10.863Z,44.75
2023-03-21T01:16:48.933Z,44.94
2023-03-21T01:19:35.233Z,44.34
2023-03-21T01:22:13.021Z,44.82
2023-03-21T01:24:53.085Z,44.63
2023-03-21T01:27:25.629Z,44.86
2023-03-21T01:29:56.279Z,44.63
2023-03-21T01:32:26.773Z,45.01
2023-03-21T01:34:56.584Z,44.79
2023-03-21T01:37:26.994Z,44.46
2023-03-21T01:39:59.269Z,44.84
2023-03-21T01:42:29.485Z,44.82
2023-03-21T01:45:02.629Z,45.08
2023-03-21T01:47:33.139Z,44.69
2023-03-21T01:50:07.043Z,44.94
2023-03-21T01:52:42.183Z,44.88
2023-03-21T01:55:17.223Z,44.80
2023-03-21T01:58:04.929Z,44.93
2023-03-21T02:00:37.224Z,44.90
2023-03-21T02:03:26.269Z,44.62
2023-03-21T02:06:05.210Z,44.54
2023-03-21T02:08:39.555Z,44.92
2023-03-21T02:11:13.698Z,45.09
2023-03-21T02:13:44.340Z,44.77
2023-03-21T02:16:24.579Z,44.83
2023-03-21T02:19:10.774Z,45.06
2023-03-21T02:22:40.056Z,44.68
2023-03-21T02:26:06.238Z,44.76
2023-03-21T02:28:44.503Z,44.63
2023-03-21T02:31:29.467Z,44.62
2023-03-21T02:34:33.662Z,44.63
2023-03-21T02:37:28.853Z,45.14
2023-03-21T02:40:14.038Z,45.02
2023-03-21T02:43:02.271Z,45.02
2023-03-21T02:45:41.886Z,44.71
2023-03-21T02:48:27.857Z,44.54
2023-03-21T02:51:04.887Z,45.08
2023-03-21T02:53:43.474Z,44.59
2023-03-21T02:56:14.630Z,44.77
2023-03-21T02:58:46.603Z,44.96
2023-03-21T03:01:17.313Z,44.76
2023-03-21T03:03:47.894Z,45.06
2023-03-21T03:06:24.487Z,44.95
2023-03-21T03:09:27.856Z,44.83
2023-03-21T03:12:15.270Z,44.84
2023-03-21T03:15:03.994Z,45.14
2023-03-21T03:17:51.357Z,44.92
2023-03-21T03:20:48.299Z,44.92
2023-03-21T03:23:30.295Z,44.60
2023-03-21T03:26:12.750Z,44.67
2023-03-21T03:28:50.657Z,44.76
2023-03-21T03:31:28.993Z,45.14
2023-03-21T03:34:05.581Z,44.68
2023-03-21T03:36:43.078Z,44.83
2023-03-21T03:39:16.507Z,44.78
2023-03-21T03:42:10.200Z,44.70
2023-03-21T03:44:46.169Z,44.90
2023-03-21T03:47:32.773Z,44.80
2023-03-21T03:50:14.748Z,45.14
2023-03-21T03:52:56.982Z,44.97
2023-03-21T03:55:34.933Z,44.82
2023-03-21T03:58:19.653Z,44.94
2023-03-21T04:00:52.999Z,44.95
2023-03-21T04:03:23.302Z,45.32
2023-03-21T04:05:54.510Z,45.29
2023-03-21T04:08:25.514Z,45.36
2023-03-21T04:10:55.910Z,45.41
2023-03-21T04:13:28.321Z,45.27
2023-03-21T04:15:58.906Z,45.51
2023-03-21T04:18:29.632Z,45.68
2023-03-21T04:21:00.019Z,45.22
2023-03-21T04:23:31.714Z,45.63
2023-03-21T04:26:01.790Z,45.28
2023-03-21T04:28:33.935Z,45.42
2023-03-21T04:31:11.114Z,45.57
2023-03-21T04:33:50.492Z,45.57
2023-03-21T04:36:29.349Z,45.54
2023-03-21T04:39:01.308Z,45.54
2023-03-21T04:41:32.502Z,45.36
2023-03-21T04:44:04.639Z,45.79
2023-03-21T04:46:34.587Z,45.75
2023-03-21T04:49:07.332Z,45.84
2023-03-21T04:51:37.831Z,45.38
2023-03-21T04:56:36.996Z,45.62
2023-03-21T04:59:13.705Z,45.87
2023-03-21T05:01:44.241Z,45.98
2023-03-21T05:04:16.716Z,46.08
2023-03-21T05:06:48.070Z,45.68
2023-03-21T05:09:18.449Z,46.11
2023-03-21T05:11:48.964Z,46.11
2023-03-21T05:14:24.107Z,46.29
2023-03-21T05:16:56.704Z,46.32
2023-03-21T05:19:35.779Z,46.13
2023-03-21T05:22:08.688Z,46.06
2023-03-21T05:24:42.340Z,45.99
2023-03-21T05:27:14.427Z,45.98
2023-03-21T05:29:46.753Z,45.86
2023-03-21T05:32:16.625Z,46.04
2023-03-21T05:34:46.663Z,46.16
2023-03-21T05:37:16.606Z,45.93
2023-03-21T05:39:47.339Z,46.30
2023-03-21T05:42:18.827Z,45.97
2023-03-21T05:44:50.571Z,45.64
2023-03-21T05:47:22.187Z,45.59
2023-03-21T05:49:52.777Z,45.67
2023-03-21T05:52:23.349Z,45.48
2023-03-21T05:54:53.979Z,45.83
2023-03-21T05:57:24.577Z,45.44
2023-03-21T06:00:00.698Z,45.42
2023-03-21T06:02:31.405Z,45.35
2023-03-21T06:05:01.713Z,45.45
2023-03-21T06:07:32.400Z,45.48
2023-03-21T06:10:02.806Z,45.34
2023-03-21T06:12:33.022Z,45.83
2023-03-21T06:15:06.574Z,45.78
2023-03-21T06:17:37.400Z,46.12
2023-03-21T06:20:09.753Z,45.99
2023-03-21T06:22:39.886Z,45.78
2023-03-21T06:25:12.045Z,46.19
2023-03-21T06:27:42.606Z,45.96
2023-03-21T06:30:18.417Z,46.58
2023-03-21T06:32:48.484Z,46.36
2023-03-21T06:35:18.448Z,46.24
2023-03-21T06:37:49.655Z,46.20
2023-03-21T06:40:20.242Z,46.31
2023-03-21T06:42:49.931Z,46.26
2023-03-21T06:45:22.435Z,46.55
2023-03-21T06:47:52.245Z,46.55
2023-03-21T06:50:22.673Z,46.49
2023-03-21T06:52:53.376Z,46.26
2023-03-21T06:55:27.224Z,46.16
2023-03-21T06:57:58.838Z,46.53
2023-03-21T07:00:31.661Z,46.26
2023-03-21T07:03:02.323Z,46.15
2023-03-21T07:05:33.030Z,45.88
2023-03-21T07:08:03.097Z,46.01
2023-03-21T07:10:33.868Z,46.21
2023-03-21T07:13:04.572Z,46.10
2023-03-21T07:15:38.941Z,46.13
2023-03-21T07:18:10.306Z,45.97
2023-03-21T07:20:40.720Z,46.03
2023-03-21T07:23:11.174Z,45.89
2023-03-21T07:25:42.162Z,45.69
2023-03-21T07:28:12.864Z,45.71
2023-03-21T07:30:46.786Z,45.72
2023-03-21T07:33:17.132Z,45.62
2023-03-21T07:35:47.506Z,45.51
2023-03-21T07:38:18.531Z,45.58
2023-03-21T07:40:50.926Z,45.50
2023-03-21T07:43:22.218Z,45.57
2023-03-21T07:45:59.560Z,45.46
2023-03-21T07:48:30.472Z,45.44
2023-03-21T07:51:00.529Z,45.31
2023-03-21T07:53:30.878Z,45.08
2023-03-21T07:56:01.370Z,45.22
2023-03-21T07:58:31.258Z,45.42
2023-03-21T08:01:04.211Z,45.25
2023-03-21T08:03:34.694Z,45.17
2023-03-21T08:06:05.514Z,45.00
2023-03-21T08:08:35.670Z,44.99
2023-03-21T08:11:07.498Z,44.90
2023-03-21T08:13:38.126Z,45.06
2023-03-21T08:16:12.401Z,45.11
2023-03-21T08:18:43.153Z,44.97
2023-03-21T08:21:13.648Z,45.33
2023-03-21T08:23:43.718Z,44.90
2023-03-21T08:26:18.754Z,44.83
2023-03-21T08:28:50.180Z,44.68
2023-03-21T08:31:23.754Z,44.69
2023-03-21T08:33:55.141Z,44.43
2023-03-21T08:36:26.830Z,44.55
2023-03-21T08:39:04.936Z,44.64
2023-03-21T08:41:36.026Z,44.22
2023-03-21T08:44:08.446Z,44.67
2023-03-21T08:46:40.346Z,44.25
2023-03-21T08:49:10.937Z,44.17
2023-03-21T08:51:41.566Z,44.33
2023-03-21T08:54:22.719Z,44.04
2023-03-21T08:56:53.373Z,44.18
2023-03-21T08:59:24.529Z,44.12
2023-03-21T09:01:56.709Z,44.01
2023-03-21T09:04:28.046Z,44.11
2023-03-21T09:06:58.539Z,44.23
2023-03-21T09:09:28.497Z,44.12
2023-03-21T09:11:58.808Z,44.09
2023-03-21T09:14:29.447Z,43.89
2023-03-21T09:17:01.722Z,43.94
2023-03-21T09:19:32.307Z,44.02
2023-03-21T09:22:02.059Z,44.05
2023-03-21T09:24:32.472Z,44.01
2023-03-21T09:27:02.474Z,44.15
2023-03-21T09:29:33.316Z,44.17
2023-03-21T09:32:07.145Z,44.07
2023-03-21T09:34:42.179Z,44.17
2023-03-21T09:37:13.808Z,43.99
2023-03-21T09:39:45.756Z,43.77
2023-03-21T09:42:33.431Z,43.90
2023-03-21T09:45:16.674Z,43.88
2023-03-21T09:47:54.660Z,43.40
2023-03-21T09:50:32.083Z,43.49
2023-03-21T09:53:06.924Z,43.56
2023-03-21T09:55:40.772Z,43.39
2023-03-21T09:58:28.022Z,43.60
2023-03-21T10:01:09.178Z,43.43
2023-03-21T10:03:44.242Z,43.36
2023-03-21T10:06:19.432Z,43.37
2023-03-21T10:08:53.278Z,43.31
2023-03-21T10:11:29.753Z,43.23
2023-03-21T10:14:06.320Z,43.15
2023-03-21T10:16:43.451Z,43.51
2023-03-21T10:19:19.470Z,43.14
2023-03-21T10:22:01.302Z,43.24
2023-03-21T10:24:36.135Z,43.26
2023-03-21T10:27:07.893Z,43.12
2023-03-21T10:29:45.844Z,42.96
2023-03-21T10:32:20.775Z,42.68
2023-03-21T10:37:34.000Z,42.71
2023-03-21T10:40:06.915Z,42.93
2023-03-21T10:42:37.686Z,42.89
2023-03-21T10:45:20.915Z,42.92
2023-03-21T10:47:53.813Z,42.89
2023-03-21T10:50:32.671Z,42.67
2023-03-21T10:53:04.712Z,42.71
2023-03-21T10:55:37.618Z,42.54
2023-03-21T10:58:12.630Z,42.74
2023-03-21T11:00:45.824Z,42.73
2023-03-21T11:03:29.370Z,42.73
2023-03-21T11:06:08.129Z,42.62
2023-03-21T11:08:45.985Z,42.60
2023-03-21T11:11:26.894Z,42.69
2023-03-21T11:14:07.315Z,42.29
2023-03-21T11:16:43.692Z,42.40
2023-03-21T11:19:21.053Z,42.48
2023-03-21T11:21:53.120Z,42.38
2023-03-21T11:24:24.065Z,42.22
2023-03-21T11:26:54.118Z,42.49
2023-03-21T11:29:33.907Z,42.16
2023-03-21T11:32:13.370Z,42.22
2023-03-21T11:35:01.427Z,42.34
2023-03-21T11:37:41.252Z,42.21
2023-03-21T11:40:25.811Z,42.12
2023-03-21T11:42:58.808Z,42.08
2023-03-21T11:45:31.350Z,42.05
2023-03-21T11:48:03.908Z,41.99
2023-03-21T11:50:38.296Z,42.30
2023-03-21T11:53:28.544Z,42.23
2023-03-21T11:56:27.002Z,42.25
2023-03-21T11:59:36.281Z,41.92
2023-03-21T12:02:55.444Z,41.86
2023-03-21T12:05:34.774Z,41.91
2023-03-21T12:08:28.079Z,41.97
2023-03-21T12:11:11.070Z,41.74
2023-03-21T12:14:05.978Z,41.69
2023-03-21T12:16:54.992Z,41.86
2023-03-21T12:19:56.585Z,41.64
2023-03-21T12:22:41.090Z,41.73
2023-03-21T12:25:21.186Z,41.60
2023-03-21T12:28:07.684Z,41.82
2023-03-21T12:30:51.569Z,41.85
2023-03-21T12:33:43.459Z,41.69
2023-03-21T12:36:45.134Z,41.76
2023-03-21T12:39:30.115Z,41.75
2023-03-21T12:42:44.798Z,41.77
2023-03-21T12:45:24.736Z,41.64
2023-03-21T12:48:02.910Z,41.61
2023-03-21T12:50:37.987Z,41.49
2023-03-21T12:53:32.207Z,41.38
2023-03-21T12:56:11.391Z,41.44
2023-03-21T12:58:52.711Z,41.44
2023-03-21T13:01:27.599Z,41.39
2023-03-21T13:04:33.636Z,41.23
2023-03-21T13:07:09.185Z,41.29
2023-03-21T13:09:41.782Z,41.11
2023-03-21T13:12:35.421Z,41.17
2023-03-21T13:15:39.946Z,41.21
2023-03-21T13:18:34.118Z,41.20
2023-03-21T13:21:13.546Z,41.39
2023-03-21T13:23:43.977Z,41.15
2023-03-21T13:26:15.041Z,41.19
2023-03-21T13:28:46.011Z,41.11
2023-03-21T13:31:23.328Z,41.17
2023-03-21T13:34:01.975Z,41.46
2023-03-21T13:36:38.622Z,41.37
2023-03-21T13:39:19.787Z,41.31
2023-03-21T13:41:51.563Z,41.45
2023-03-21T13:44:38.373Z,41.22
2023-03-21T13:47:31.200Z,41.07
2023-03-21T13:50:36.883Z,41.23
2023-03-21T13:53:34.062Z,41.29
2023-03-21T13:56:21.300Z,41.28
2023-03-21T13:59:04.044Z,41.36
2023-03-21T14:01:43.701Z,41.26
2023-03-21T14:04:18.656Z,41.25
2023-03-21T14:06:59.404Z,41.35
2023-03-21T14:09:38.662Z,41.40
2023-03-21T14:12:17.276Z,41.36
2023-03-21T14:14:52.616Z,41.48
2023-03-21T14:17:28.630Z,41.43
2023-03-21T14:20:13.662Z,41.54
2023-03-21T14:22:49.071Z,41.38
2023-03-21T14:25:41.059Z,41.19
2023-03-21T14:28:22.460Z,41.41
2023-03-21T14:31:00.433Z,41.36
2023-03-21T14:33:39.010Z,41.12
2023-03-21T14:36:16.710Z,41.45
2023-03-21T14:38:59.981Z,41.52
2023-03-21T14:41:33.953Z,41.37
2023-03-21T14:44:22.698Z,41.38
2023-03-21T14:46:53.097Z,41.33
2023-03-21T14:49:30.671Z,41.29
2023-03-21T14:52:06.702Z,41.45
2023-03-21T14:54:43.116Z,41.54
2023-03-21T14:57:21.729Z,41.30
2023-03-21T14:59:55.976Z,41.43
2023-03-21T15:02:30.615Z,41.46
2023-03-21T15:05:11.696Z,41.30
2023-03-21T15:07:42.462Z,41.46
2023-03-21T15:10:19.781Z,41.41
2023-03-21T15:12:57.132Z,41.46
2023-03-21T15:15:31.296Z,41.64
2023-03-21T15:18:07.394Z,41.46
2023-03-21T15:20:40.981Z,41.51
2023-03-21T15:23:18.898Z,41.31
2023-03-21T15:25:51.047Z,41.53
2023-03-21T15:28:21.703Z,41.40
2023-03-21T15:30:56.769Z,41.55
2023-03-21T15:33:29.164Z,41.61
2023-03-21T15:36:04.851Z,41.32
2023-03-21T15:38:42.022Z,41.44
2023-03-21T15:41:30.389Z,41.58
2023-03-21T15:44:15.540Z,41.61
2023-03-21T15:46:48.851Z,41.68
2023-03-21T15:49:28.650Z,41.45
2023-03-21T15:52:07.496Z,41.72
2023-03-21T15:54:45.406Z,41.55
2023-03-21T15:57:26.293Z,41.53
2023-03-21T16:00:12.366Z,41.54
2023-03-21T16:02:44.717Z,41.59
2023-03-21T16:05:28.854Z,41.58
2023-03-21T16:08:07.319Z,41.64
2023-03-21T16:10:40.553Z,41.67
2023-03-21T16:13:15.807Z,41.63
2023-03-21T16:15:47.769Z,41.60
2023-03-21T16:18:19.831Z,41.71
2023-03-21T16:20:51.033Z,41.71
2023-03-21T16:23:21.564Z,41.56
2023-03-21T16:25:56.261Z,41.58
2023-03-21T16:28:28.686Z,41.63
2023-03-21T16:30:58.893Z,41.96
2023-03-21T16:33:29.571Z,41.74
2023-03-21T16:36:01.173Z,41.82
2023-03-21T16:38:31.724Z,41.95
2023-03-21T16:41:04.661Z,41.71
2023-03-21T16:43:39.856Z,42.05
2023-03-21T16:46:14.769Z,41.57
2023-03-21T16:48:47.267Z,41.85
2023-03-21T16:51:19.517Z,42.02
2023-03-21T16:53:52.035Z,41.90
2023-03-21T16:56:26.555Z,42.06
2023-03-21T16:59:00.538Z,41.79
2023-03-21T17:01:30.872Z,41.86
2023-03-21T17:04:03.776Z,41.96
2023-03-21T17:06:34.206Z,41.86
2023-03-21T17:09:04.594Z,41.81
2023-03-21T17:11:36.561Z,41.94
2023-03-21T17:14:09.140Z,41.77
2023-03-21T17:16:40.713Z,42.07
2023-03-21T17:19:20.607Z,41.98
2023-03-21T17:21:51.791Z,41.84
2023-03-21T17:24:23.625Z,41.66
2023-03-21T17:26:54.500Z,41.95
2023-03-21T17:29:26.573Z,42.11
2023-03-21T17:31:57.177Z,42.04
2023-03-21T17:34:28.127Z,41.80
2023-03-21T17:36:58.612Z,41.82
2023-03-21T17:39:30.196Z,42.11
2023-03-21T17:42:00.702Z,42.00
2023-03-21T17:44:32.885Z,42.30
2023-03-21T17:47:03.251Z,41.92
2023-03-21T17:49:33.356Z,42.04
2023-03-21T17:52:03.178Z,42.15
2023-03-21T17:54:33.158Z,42.39
2023-03-21T17:57:04.216Z,42.16
2023-03-21T17:59:36.249Z,42.30
2023-03-21T18:02:06.973Z,42.30
2023-03-21T18:04:37.760Z,42.17
2023-03-21T18:07:12.283Z,42.22
2023-03-21T18:09:44.522Z,42.05
2023-03-21T18:12:15.570Z,42.35
2023-03-21T18:14:47.826Z,42.54
2023-03-21T18:17:19.799Z,42.10
2023-03-21T18:19:50.563Z,42.37
2023-03-21T18:22:21.192Z,42.43
2023-03-21T18:24:51.581Z,42.37
2023-03-21T18:27:22.807Z,42.46
2023-03-21T18:30:25.947Z,42.59
2023-03-21T18:32:46.231Z,42.39
2023-03-21T18:35:20.140Z,42.41
2023-03-21T18:37:51.128Z,42.72
2023-03-21T18:40:24.322Z,42.75
2023-03-21T18:43:56.022Z,42.42
2023-03-21T18:45:47.862Z,42.59
2023-03-21T18:48:18.415Z,42.35
2023-03-21T18:50:49.030Z,42.58
2023-03-21T18:53:18.868Z,42.63
2023-03-21T18:55:51.939Z,42.71
2023-03-21T18:58:23.332Z,42.41
2023-03-21T19:00:55.470Z,42.58
2023-03-21T19:03:35.780Z,42.59
2023-03-21T19:06:08.301Z,42.67
2023-03-21T19:08:38.840Z,42.76
2023-03-21T19:11:09.680Z,42.76
2023-03-21T19:13:39.374Z,42.87
2023-03-21T19:16:12.037Z,42.75
2023-03-21T19:18:54.510Z,42.55
2023-03-21T19:21:27.795Z,42.59
2023-03-21T19:24:25.177Z,42.71
2023-03-21T19:26:49.021Z,42.49
2023-03-21T19:29:19.142Z,42.93
2023-03-21T19:31:52.108Z,42.65
2023-03-21T19:34:23.210Z,42.97
2023-03-21T19:36:53.522Z,42.96
2023-03-21T19:39:24.420Z,43.19
2023-03-21T19:42:08.977Z,42.97
2023-03-21T19:44:45.217Z,43.05
2023-03-21T19:47:18.157Z,42.81
2023-03-21T19:52:43.256Z,43.15
2023-03-21T19:55:15.170Z,43.01
2023-03-21T19:57:48.636Z,43.13
2023-03-21T20:00:20.559Z,42.88
2023-03-21T20:02:53.532Z,43.24
2023-03-21T20:05:25.852Z,43.04
2023-03-21T20:07:57.509Z,43.03
2023-03-21T20:10:28.519Z,43.08
2023-03-21T20:12:59.312Z,43.09
2023-03-21T20:15:30.672Z,43.07
2023-03-21T20:18:03.237Z,43.33
2023-03-21T20:20:33.803Z,43.05
2023-03-21T20:23:07.899Z,42.92
2023-03-21T20:25:42.515Z,43.16
2023-03-21T20:28:17.153Z,43.02
2023-03-21T20:30:57.389Z,43.12
2023-03-21T20:33:30.334Z,43.13
2023-03-21T20:38:53.905Z,43.26
2023-03-21T20:41:24.257Z,43.23
2023-03-21T20:46:47.879Z,43.44
2023-03-21T20:49:23.184Z,43.20
2023-03-21T20:52:51.811Z,42.93
2023-03-21T20:54:47.482Z,43.49
2023-03-21T20:57:18.208Z,43.10
2023-03-21T20:59:48.101Z,43.14
2023-03-21T21:02:18.427Z,43.10
2023-03-21T21:05:21.575Z,43.02
2023-03-21T21:07:44.114Z,43.25
2023-03-21T21:10:17.170Z,43.08
2023-03-21T21:12:47.692Z,43.42
2023-03-21T21:15:18.712Z,43.11
2023-03-21T21:18:07.443Z,43.20
2023-03-21T21:20:41.122Z,43.43
2023-03-21T21:23:10.974Z,43.26
2023-03-21T21:25:41.170Z,43.46
2023-03-21T21:28:12.093Z,43.11
2023-03-21T21:30:43.436Z,43.21
2023-03-21T21:33:14.942Z,43.41
2023-03-21T21:35:49.193Z,43.07
2023-03-21T21:38:21.318Z,43.58
2023-03-21T21:40:53.907Z,43.19
2023-03-21T21:43:23.664Z,43.42
2023-03-21T21:45:54.142Z,42.97
2023-03-21T21:48:24.080Z,43.26
2023-03-21T21:50:57.087Z,43.63
2023-03-21T21:53:28.587Z,43.11
2023-03-21T21:55:59.067Z,43.28
2023-03-21T21:58:29.270Z,43.64
2023-03-21T22:01:03.274Z,43.56
2023-03-21T22:03:41.302Z,43.29
2023-03-21T22:06:14.593Z,43.53
2023-03-21T22:08:47.325Z,43.17
2023-03-21T22:11:19.116Z,43.44
2023-03-21T22:13:49.569Z,43.27
2023-03-21T22:16:20.220Z,43.55
2023-03-21T22:18:50.869Z,43.70
2023-03-21T22:21:22.893Z,43.77
2023-03-21T22:23:53.413Z,43.49
2023-03-21T22:26:23.569Z,43.48
2023-03-21T22:28:54.178Z,43.73
2023-03-21T22:31:26.292Z,43.84
2023-03-21T22:33:56.924Z,43.78
2023-03-21T22:36:29.563Z,43.42
2023-03-21T22:39:00.113Z,43.71
2023-03-21T22:41:29.944Z,43.52
2023-03-21T22:44:00.638Z,43.63
2023-03-21T22:46:31.339Z,43.54
2023-03-21T22:49:01.719Z,43.49
2023-03-21T22:51:33.714Z,43.57
2023-03-21T22:54:04.366Z,43.50
2023-03-21T22:56:34.306Z,43.77
2023-03-21T22:59:04.804Z,43.54
2023-03-21T23:01:35.393Z,43.85
2023-03-21T23:04:05.847Z,43.56
2023-03-21T23:06:39.002Z,43.86
2023-03-21T23:09:09.564Z,43.61
2023-03-21T23:11:39.489Z,43.63
2023-03-21T23:14:10.466Z,43.80
2023-03-21T23:16:40.044Z,43.50
2023-03-21T23:19:12.734Z,43.75
2023-03-21T23:21:45.389Z,43.78
2023-03-21T23:24:16.800Z,43.62
2023-03-21T23:26:47.275Z,43.75
2023-03-21T23:29:17.965Z,43.80
2023-03-21T23:31:48.244Z,43.52
2023-03-21T23:34:18.742Z,43.93
2023-03-21T23:36:50.717Z,43.97
2023-03-21T23:39:20.964Z,43.98
2023-03-21T23:41:51.346Z,43.99
2023-03-21T23:44:21.421Z,44.05
2023-03-21T23:46:51.771Z,43.84
2023-03-21T23:49:22.210Z,43.71
2023-03-21T23:51:54.560Z,43.75
2023-03-21T23:54:24.889Z,44.01
2023-03-21T23:56:55.078Z,43.80
2023-03-21T23:59:25.411Z,43.74
